sensor_id;sensor_type;location;lat;lon;timestamp;P1;durP1;ratioP1;P2;durP2;ratioP2
22460;SDS011;11397;48.410;11.468;2022-10-17T00:01:58;6.00;;;5.80;;
22460;SDS011;11397;48.410;11.468;2022-10-17T00:07:00;6.22;;;6.03;;
22460;SDS011;11397;48.410;11.468;2022-10-17T00:12:03;6.35;;;6.15;;
22460;SDS011;11397;48.410;11.468;2022-10-17T00:17:04;6.38;;;6.18;;
22460;SDS011;11397;48.410;11.468;2022-10-17T00:22:06;6.93;;;6.72;;
22460;SDS011;11397;48.410;11.468;2022-10-17T00:27:09;6.05;;;5.85;;
22460;SDS011;11397;48.410;11.468;2022-10-17T00:32:10;6.25;;;6.05;;
22460;SDS011;11397;48.410;11.468;2022-10-17T00:37:12;6.90;;;6.70;;
22460;SDS011;11397;48.410;11.468;2022-10-17T00:42:15;6.43;;;6.22;;
22460;SDS011;11397;48.410;11.468;2022-10-17T00:47:18;6.40;;;6.10;;
22460;SDS011;11397;48.410;11.468;2022-10-17T00:52:21;6.78;;;6.57;;
22460;SDS011;11397;48.410;11.468;2022-10-17T00:57:25;6.45;;;6.25;;
22460;SDS011;11397;48.410;11.468;2022-10-17T01:02:27;6.57;;;6.38;;
22460;SDS011;11397;48.410;11.468;2022-10-17T01:07:29;6.78;;;6.57;;
22460;SDS011;11397;48.410;11.468;2022-10-17T01:12:34;7.28;;;7.05;;
22460;SDS011;11397;48.410;11.468;2022-10-17T01:17:39;6.68;;;6.47;;
22460;SDS011;11397;48.410;11.468;2022-10-17T01:22:46;6.57;;;6.38;;
22460;SDS011;11397;48.410;11.468;2022-10-17T01:27:58;6.43;;;6.22;;
22460;SDS011;11397;48.410;11.468;2022-10-17T01:33:04;6.53;;;6.32;;
22460;SDS011;11397;48.410;11.468;2022-10-17T01:38:08;6.95;;;6.75;;
22460;SDS011;11397;48.410;11.468;2022-10-17T01:43:12;6.53;;;6.32;;
22460;SDS011;11397;48.410;11.468;2022-10-17T01:48:19;6.78;;;6.57;;
22460;SDS011;11397;48.410;11.468;2022-10-17T01:53:23;7.65;;;7.35;;
22460;SDS011;11397;48.410;11.468;2022-10-17T01:58:28;6.82;;;6.63;;
22460;SDS011;11397;48.410;11.468;2022-10-17T02:03:33;6.88;;;6.68;;
22460;SDS011;11397;48.410;11.468;2022-10-17T02:08:39;6.82;;;6.63;;
22460;SDS011;11397;48.410;11.468;2022-10-17T02:13:44;6.57;;;6.38;;
22460;SDS011;11397;48.410;11.468;2022-10-17T02:24:19;6.95;;;6.75;;
22460;SDS011;11397;48.410;11.468;2022-10-17T02:29:23;7.57;;;7.28;;
22460;SDS011;11397;48.410;11.468;2022-10-17T02:34:27;7.68;;;7.38;;
22460;SDS011;11397;48.410;11.468;2022-10-17T02:39:31;7.07;;;6.88;;
22460;SDS011;11397;48.410;11.468;2022-10-17T02:44:33;7.82;;;7.53;;
22460;SDS011;11397;48.410;11.468;2022-10-17T02:49:37;6.72;;;6.53;;
22460;SDS011;11397;48.410;11.468;2022-10-17T02:54:41;7.65;;;7.35;;
22460;SDS011;11397;48.410;11.468;2022-10-17T02:59:44;7.72;;;7.43;;
22460;SDS011;11397;48.410;11.468;2022-10-17T03:04:46;7.68;;;7.38;;
22460;SDS011;11397;48.410;11.468;2022-10-17T03:09:50;7.85;;;7.55;;
22460;SDS011;11397;48.410;11.468;2022-10-17T03:14:52;6.75;;;6.55;;
22460;SDS011;11397;48.410;11.468;2022-10-17T03:19:54;7.68;;;7.38;;
22460;SDS011;11397;48.410;11.468;2022-10-17T03:24:59;7.10;;;6.90;;
22460;SDS011;11397;48.410;11.468;2022-10-17T03:30:02;7.22;;;7.00;;
22460;SDS011;11397;48.410;11.468;2022-10-17T03:35:07;8.10;;;7.80;;
22460;SDS011;11397;48.410;11.468;2022-10-17T03:40:11;8.18;;;7.88;;
22460;SDS011;11397;48.410;11.468;2022-10-17T03:45:12;6.95;;;6.75;;
22460;SDS011;11397;48.410;11.468;2022-10-17T03:50:15;7.85;;;7.55;;
22460;SDS011;11397;48.410;11.468;2022-10-17T03:55:19;7.07;;;6.88;;
22460;SDS011;11397;48.410;11.468;2022-10-17T04:00:21;7.38;;;7.10;;
22460;SDS011;11397;48.410;11.468;2022-10-17T04:05:30;8.07;;;7.78;;
22460;SDS011;11397;48.410;11.468;2022-10-17T04:10:33;7.15;;;6.95;;
22460;SDS011;11397;48.410;11.468;2022-10-17T04:15:35;7.75;;;7.45;;
22460;SDS011;11397;48.410;11.468;2022-10-17T04:20:37;7.72;;;7.43;;
22460;SDS011;11397;48.410;11.468;2022-10-17T04:25:40;6.47;;;6.28;;
22460;SDS011;11397;48.410;11.468;2022-10-17T04:30:42;6.95;;;6.75;;
22460;SDS011;11397;48.410;11.468;2022-10-17T04:35:45;7.70;;;7.40;;
22460;SDS011;11397;48.410;11.468;2022-10-17T04:40:57;7.50;;;7.20;;
22460;SDS011;11397;48.410;11.468;2022-10-17T04:45:59;7.03;;;6.82;;
22460;SDS011;11397;48.410;11.468;2022-10-17T04:51:02;8.18;;;7.88;;
22460;SDS011;11397;48.410;11.468;2022-10-17T04:56:25;7.63;;;7.32;;
22460;SDS011;11397;48.410;11.468;2022-10-17T05:01:27;7.90;;;7.60;;
22460;SDS011;11397;48.410;11.468;2022-10-17T05:06:30;7.93;;;7.63;;
22460;SDS011;11397;48.410;11.468;2022-10-17T05:12:04;6.72;;;6.53;;
22460;SDS011;11397;48.410;11.468;2022-10-17T05:17:06;7.70;;;7.40;;
22460;SDS011;11397;48.410;11.468;2022-10-17T05:22:09;6.95;;;6.75;;
22460;SDS011;11397;48.410;11.468;2022-10-17T05:27:12;7.45;;;7.15;;
22460;SDS011;11397;48.410;11.468;2022-10-17T05:32:14;7.65;;;7.35;;
22460;SDS011;11397;48.410;11.468;2022-10-17T05:37:15;7.03;;;6.80;;
22460;SDS011;11397;48.410;11.468;2022-10-17T05:42:24;7.45;;;7.15;;
22460;SDS011;11397;48.410;11.468;2022-10-17T05:47:26;7.85;;;7.55;;
22460;SDS011;11397;48.410;11.468;2022-10-17T05:52:27;8.25;;;7.95;;
22460;SDS011;11397;48.410;11.468;2022-10-17T05:57:45;7.95;;;7.65;;
22460;SDS011;11397;48.410;11.468;2022-10-17T06:02:51;7.25;;;7.03;;
22460;SDS011;11397;48.410;11.468;2022-10-17T06:07:53;7.90;;;7.60;;
22460;SDS011;11397;48.410;11.468;2022-10-17T06:12:57;8.15;;;7.85;;
22460;SDS011;11397;48.410;11.468;2022-10-17T06:18:00;7.65;;;7.35;;
22460;SDS011;11397;48.410;11.468;2022-10-17T06:23:02;7.03;;;6.82;;
22460;SDS011;11397;48.410;11.468;2022-10-17T06:28:27;7.38;;;7.10;;
22460;SDS011;11397;48.410;11.468;2022-10-17T06:33:30;8.23;;;7.93;;
22460;SDS011;11397;48.410;11.468;2022-10-17T06:38:32;7.15;;;6.95;;
22460;SDS011;11397;48.410;11.468;2022-10-17T06:43:37;7.40;;;7.13;;
22460;SDS011;11397;48.410;11.468;2022-10-17T06:48:58;7.75;;;7.45;;
22460;SDS011;11397;48.410;11.468;2022-10-17T06:54:22;7.53;;;7.22;;
22460;SDS011;11397;48.410;11.468;2022-10-17T06:59:54;6.97;;;6.78;;
22460;SDS011;11397;48.410;11.468;2022-10-17T07:05:01;7.60;;;7.30;;
22460;SDS011;11397;48.410;11.468;2022-10-17T07:10:03;7.97;;;7.68;;
22460;SDS011;11397;48.410;11.468;2022-10-17T07:15:10;7.75;;;7.45;;
22460;SDS011;11397;48.410;11.468;2022-10-17T07:20:13;7.75;;;7.45;;
22460;SDS011;11397;48.410;11.468;2022-10-17T07:25:15;7.50;;;7.20;;
22460;SDS011;11397;48.410;11.468;2022-10-17T07:30:23;7.55;;;7.25;;
22460;SDS011;11397;48.410;11.468;2022-10-17T07:35:36;6.80;;;6.55;;
22460;SDS011;11397;48.410;11.468;2022-10-17T07:40:39;7.53;;;7.22;;
22460;SDS011;11397;48.410;11.468;2022-10-17T07:45:42;6.55;;;6.35;;
22460;SDS011;11397;48.410;11.468;2022-10-17T07:50:44;6.55;;;6.35;;
22460;SDS011;11397;48.410;11.468;2022-10-17T07:55:46;6.97;;;6.78;;
22460;SDS011;11397;48.410;11.468;2022-10-17T08:00:50;6.93;;;6.72;;
22460;SDS011;11397;48.410;11.468;2022-10-17T08:05:52;6.95;;;6.75;;
22460;SDS011;11397;48.410;11.468;2022-10-17T08:11:00;5.93;;;5.72;;
22460;SDS011;11397;48.410;11.468;2022-10-17T08:16:04;7.28;;;6.80;;
22460;SDS011;11397;48.410;11.468;2022-10-17T08:21:06;6.38;;;6.18;;
22460;SDS011;11397;48.410;11.468;2022-10-17T08:26:08;6.53;;;6.32;;
22460;SDS011;11397;48.410;11.468;2022-10-17T08:31:14;6.32;;;6.13;;
22460;SDS011;11397;48.410;11.468;2022-10-17T08:36:17;6.45;;;6.25;;
22460;SDS011;11397;48.410;11.468;2022-10-17T08:41:23;6.15;;;5.95;;
22460;SDS011;11397;48.410;11.468;2022-10-17T08:46:30;6.57;;;6.38;;
22460;SDS011;11397;48.410;11.468;2022-10-17T08:51:33;6.35;;;6.15;;
22460;SDS011;11397;48.410;11.468;2022-10-17T08:56:38;6.18;;;5.97;;
22460;SDS011;11397;48.410;11.468;2022-10-17T09:01:43;5.90;;;5.70;;
22460;SDS011;11397;48.410;11.468;2022-10-17T09:06:48;6.75;;;6.55;;
22460;SDS011;11397;48.410;11.468;2022-10-17T09:11:54;5.68;;;5.47;;
22460;SDS011;11397;48.410;11.468;2022-10-17T09:17:01;6.40;;;6.20;;
22460;SDS011;11397;48.410;11.468;2022-10-17T09:22:08;5.78;;;5.57;;
22460;SDS011;11397;48.410;11.468;2022-10-17T09:27:14;5.43;;;5.22;;
22460;SDS011;11397;48.410;11.468;2022-10-17T09:32:21;5.88;;;5.68;;
22460;SDS011;11397;48.410;11.468;2022-10-17T09:37:25;5.93;;;5.72;;
22460;SDS011;11397;48.410;11.468;2022-10-17T09:42:30;5.38;;;5.18;;
22460;SDS011;11397;48.410;11.468;2022-10-17T09:47:36;5.80;;;5.60;;
22460;SDS011;11397;48.410;11.468;2022-10-17T09:52:41;5.85;;;5.65;;
22460;SDS011;11397;48.410;11.468;2022-10-17T09:57:50;5.80;;;5.60;;
22460;SDS011;11397;48.410;11.468;2022-10-17T10:08:19;6.20;;;6.00;;
22460;SDS011;11397;48.410;11.468;2022-10-17T10:13:22;5.88;;;5.68;;
22460;SDS011;11397;48.410;11.468;2022-10-17T10:18:30;5.60;;;5.40;;
22460;SDS011;11397;48.410;11.468;2022-10-17T10:23:34;6.18;;;5.97;;
22460;SDS011;11397;48.410;11.468;2022-10-17T10:28:39;6.05;;;5.85;;
22460;SDS011;11397;48.410;11.468;2022-10-17T10:33:41;5.60;;;5.40;;
22460;SDS011;11397;48.410;11.468;2022-10-17T10:38:51;5.38;;;5.18;;
22460;SDS011;11397;48.410;11.468;2022-10-17T10:43:54;5.90;;;5.70;;
22460;SDS011;11397;48.410;11.468;2022-10-17T10:48:57;5.30;;;5.10;;
22460;SDS011;11397;48.410;11.468;2022-10-17T10:54:02;5.95;;;5.75;;
22460;SDS011;11397;48.410;11.468;2022-10-17T10:59:08;5.25;;;5.05;;
22460;SDS011;11397;48.410;11.468;2022-10-17T11:04:14;5.60;;;5.40;;
22460;SDS011;11397;48.410;11.468;2022-10-17T11:09:23;5.53;;;5.32;;
22460;SDS011;11397;48.410;11.468;2022-10-17T11:14:33;5.45;;;5.25;;
22460;SDS011;11397;48.410;11.468;2022-10-17T11:19:40;5.68;;;5.47;;
22460;SDS011;11397;48.410;11.468;2022-10-17T11:24:47;5.68;;;5.47;;
22460;SDS011;11397;48.410;11.468;2022-10-17T11:29:56;5.75;;;5.55;;
22460;SDS011;11397;48.410;11.468;2022-10-17T11:35:00;5.85;;;5.65;;
22460;SDS011;11397;48.410;11.468;2022-10-17T11:40:07;5.50;;;5.30;;
22460;SDS011;11397;48.410;11.468;2022-10-17T11:45:16;5.38;;;5.18;;
22460;SDS011;11397;48.410;11.468;2022-10-17T11:50:19;5.47;;;5.28;;
22460;SDS011;11397;48.410;11.468;2022-10-17T11:55:25;5.70;;;5.50;;
22460;SDS011;11397;48.410;11.468;2022-10-17T12:00:30;5.55;;;5.35;;
22460;SDS011;11397;48.410;11.468;2022-10-17T12:05:36;5.53;;;5.32;;
22460;SDS011;11397;48.410;11.468;2022-10-17T12:10:44;5.28;;;5.07;;
22460;SDS011;11397;48.410;11.468;2022-10-17T12:15:46;5.50;;;5.30;;
22460;SDS011;11397;48.410;11.468;2022-10-17T12:20:53;5.43;;;5.22;;
22460;SDS011;11397;48.410;11.468;2022-10-17T12:25:58;6.00;;;5.80;;
22460;SDS011;11397;48.410;11.468;2022-10-17T12:31:01;5.50;;;5.30;;
22460;SDS011;11397;48.410;11.468;2022-10-17T12:46:46;5.50;;;5.30;;
22460;SDS011;11397;48.410;11.468;2022-10-17T12:52:05;5.32;;;5.13;;
22460;SDS011;11397;48.410;11.468;2022-10-17T12:57:12;4.45;;;4.35;;
22460;SDS011;11397;48.410;11.468;2022-10-17T13:02:18;4.70;;;4.60;;
22460;SDS011;11397;48.410;11.468;2022-10-17T13:07:23;5.03;;;4.88;;
22460;SDS011;11397;48.410;11.468;2022-10-17T13:12:25;4.75;;;4.65;;
22460;SDS011;11397;48.410;11.468;2022-10-17T13:17:29;5.45;;;5.25;;
22460;SDS011;11397;48.410;11.468;2022-10-17T13:22:31;5.32;;;5.13;;
22460;SDS011;11397;48.410;11.468;2022-10-17T13:27:33;5.68;;;5.47;;
22460;SDS011;11397;48.410;11.468;2022-10-17T13:32:37;4.68;;;4.57;;
22460;SDS011;11397;48.410;11.468;2022-10-17T13:37:40;5.43;;;5.22;;
22460;SDS011;11397;48.410;11.468;2022-10-17T13:42:42;5.40;;;5.20;;
22460;SDS011;11397;48.410;11.468;2022-10-17T13:47:45;5.38;;;5.18;;
22460;SDS011;11397;48.410;11.468;2022-10-17T13:52:47;5.05;;;4.90;;
22460;SDS011;11397;48.410;11.468;2022-10-17T13:57:49;5.07;;;4.88;;
22460;SDS011;11397;48.410;11.468;2022-10-17T14:02:53;5.57;;;5.38;;
22460;SDS011;11397;48.410;11.468;2022-10-17T14:07:56;5.28;;;5.07;;
22460;SDS011;11397;48.410;11.468;2022-10-17T14:13:01;5.20;;;5.00;;
22460;SDS011;11397;48.410;11.468;2022-10-17T14:18:07;5.20;;;5.00;;
22460;SDS011;11397;48.410;11.468;2022-10-17T14:23:25;5.70;;;5.50;;
22460;SDS011;11397;48.410;11.468;2022-10-17T14:28:29;5.80;;;5.60;;
22460;SDS011;11397;48.410;11.468;2022-10-17T14:33:32;5.47;;;5.28;;
22460;SDS011;11397;48.410;11.468;2022-10-17T14:38:35;5.40;;;5.20;;
22460;SDS011;11397;48.410;11.468;2022-10-17T14:43:37;5.45;;;5.25;;
22460;SDS011;11397;48.410;11.468;2022-10-17T14:48:40;5.75;;;5.55;;
22460;SDS011;11397;48.410;11.468;2022-10-17T14:53:43;5.38;;;5.18;;
22460;SDS011;11397;48.410;11.468;2022-10-17T14:58:44;5.72;;;5.53;;
22460;SDS011;11397;48.410;11.468;2022-10-17T15:03:47;5.95;;;5.75;;
22460;SDS011;11397;48.410;11.468;2022-10-17T15:08:49;5.65;;;5.45;;
22460;SDS011;11397;48.410;11.468;2022-10-17T15:13:51;6.00;;;5.80;;
22460;SDS011;11397;48.410;11.468;2022-10-17T15:18:54;5.80;;;5.60;;
22460;SDS011;11397;48.410;11.468;2022-10-17T15:23:55;5.53;;;5.32;;
22460;SDS011;11397;48.410;11.468;2022-10-17T15:28:58;5.30;;;5.10;;
22460;SDS011;11397;48.410;11.468;2022-10-17T15:34:01;5.60;;;5.40;;
22460;SDS011;11397;48.410;11.468;2022-10-17T15:39:03;5.78;;;5.57;;
22460;SDS011;11397;48.410;11.468;2022-10-17T15:44:05;5.15;;;4.95;;
22460;SDS011;11397;48.410;11.468;2022-10-17T15:49:09;5.13;;;4.93;;
22460;SDS011;11397;48.410;11.468;2022-10-17T15:54:11;5.72;;;5.53;;
22460;SDS011;11397;48.410;11.468;2022-10-17T15:59:17;4.82;;;4.72;;
22460;SDS011;11397;48.410;11.468;2022-10-17T16:04:21;5.80;;;5.60;;
22460;SDS011;11397;48.410;11.468;2022-10-17T16:09:26;5.60;;;5.40;;
22460;SDS011;11397;48.410;11.468;2022-10-17T16:14:28;5.57;;;5.38;;
22460;SDS011;11397;48.410;11.468;2022-10-17T16:19:33;6.00;;;5.80;;
22460;SDS011;11397;48.410;11.468;2022-10-17T16:24:34;5.70;;;5.50;;
22460;SDS011;11397;48.410;11.468;2022-10-17T16:29:36;5.60;;;5.40;;
22460;SDS011;11397;48.410;11.468;2022-10-17T16:34:39;5.38;;;5.18;;
22460;SDS011;11397;48.410;11.468;2022-10-17T16:39:40;6.00;;;5.80;;
22460;SDS011;11397;48.410;11.468;2022-10-17T16:44:42;5.60;;;5.40;;
22460;SDS011;11397;48.410;11.468;2022-10-17T16:49:45;4.80;;;4.70;;
22460;SDS011;11397;48.410;11.468;2022-10-17T16:54:46;5.30;;;5.10;;
22460;SDS011;11397;48.410;11.468;2022-10-17T16:59:48;5.38;;;5.18;;
22460;SDS011;11397;48.410;11.468;2022-10-17T17:04:51;5.88;;;5.68;;
22460;SDS011;11397;48.410;11.468;2022-10-17T17:09:52;5.57;;;5.38;;
22460;SDS011;11397;48.410;11.468;2022-10-17T17:14:55;5.43;;;5.22;;
22460;SDS011;11397;48.410;11.468;2022-10-17T17:19:58;5.57;;;5.38;;
22460;SDS011;11397;48.410;11.468;2022-10-17T17:25:00;5.55;;;5.35;;
22460;SDS011;11397;48.410;11.468;2022-10-17T17:30:01;5.55;;;5.35;;
22460;SDS011;11397;48.410;11.468;2022-10-17T17:35:05;5.90;;;5.70;;
22460;SDS011;11397;48.410;11.468;2022-10-17T17:40:07;5.63;;;5.43;;
22460;SDS011;11397;48.410;11.468;2022-10-17T17:45:09;6.13;;;5.93;;
22460;SDS011;11397;48.410;11.468;2022-10-17T17:50:12;5.85;;;5.65;;
22460;SDS011;11397;48.410;11.468;2022-10-17T17:55:14;6.25;;;6.05;;
22460;SDS011;11397;48.410;11.468;2022-10-17T18:00:15;6.22;;;6.03;;
22460;SDS011;11397;48.410;11.468;2022-10-17T18:05:19;6.03;;;5.82;;
22460;SDS011;11397;48.410;11.468;2022-10-17T18:10:20;5.57;;;5.38;;
22460;SDS011;11397;48.410;11.468;2022-10-17T18:15:22;5.35;;;5.15;;
22460;SDS011;11397;48.410;11.468;2022-10-17T18:20:25;6.07;;;5.88;;
22460;SDS011;11397;48.410;11.468;2022-10-17T18:25:27;6.05;;;5.85;;
22460;SDS011;11397;48.410;11.468;2022-10-17T18:30:28;5.70;;;5.50;;
22460;SDS011;11397;48.410;11.468;2022-10-17T18:35:32;6.20;;;6.00;;
22460;SDS011;11397;48.410;11.468;2022-10-17T18:40:34;6.28;;;6.07;;
22460;SDS011;11397;48.410;11.468;2022-10-17T18:45:35;6.10;;;5.90;;
22460;SDS011;11397;48.410;11.468;2022-10-17T18:50:38;5.75;;;5.55;;
22460;SDS011;11397;48.410;11.468;2022-10-17T18:55:40;6.20;;;6.00;;
22460;SDS011;11397;48.410;11.468;2022-10-17T19:00:42;5.72;;;5.53;;
22460;SDS011;11397;48.410;11.468;2022-10-17T19:05:45;6.18;;;5.97;;
22460;SDS011;11397;48.410;11.468;2022-10-17T19:10:47;6.15;;;5.95;;
22460;SDS011;11397;48.410;11.468;2022-10-17T19:15:48;6.15;;;5.95;;
22460;SDS011;11397;48.410;11.468;2022-10-17T19:20:51;6.28;;;6.07;;
22460;SDS011;11397;48.410;11.468;2022-10-17T19:25:53;6.35;;;6.15;;
22460;SDS011;11397;48.410;11.468;2022-10-17T19:30:55;6.10;;;5.90;;
22460;SDS011;11397;48.410;11.468;2022-10-17T19:35:59;5.88;;;5.68;;
22460;SDS011;11397;48.410;11.468;2022-10-17T19:41:03;5.68;;;5.47;;
22460;SDS011;11397;48.410;11.468;2022-10-17T19:46:06;6.03;;;5.82;;
22460;SDS011;11397;48.410;11.468;2022-10-17T19:51:10;6.38;;;6.18;;
22460;SDS011;11397;48.410;11.468;2022-10-17T19:56:13;6.45;;;6.25;;
22460;SDS011;11397;48.410;11.468;2022-10-17T20:01:18;5.88;;;5.68;;
22460;SDS011;11397;48.410;11.468;2022-10-17T20:06:21;6.18;;;5.97;;
22460;SDS011;11397;48.410;11.468;2022-10-17T20:11:24;6.40;;;6.20;;
22460;SDS011;11397;48.410;11.468;2022-10-17T20:16:26;6.43;;;6.22;;
22460;SDS011;11397;48.410;11.468;2022-10-17T20:21:30;6.40;;;6.20;;
22460;SDS011;11397;48.410;11.468;2022-10-17T20:26:34;5.97;;;5.78;;
22460;SDS011;11397;48.410;11.468;2022-10-17T20:32:01;6.47;;;6.28;;
22460;SDS011;11397;48.410;11.468;2022-10-17T20:37:29;6.25;;;6.05;;
22460;SDS011;11397;48.410;11.468;2022-10-17T20:42:58;6.35;;;6.15;;
22460;SDS011;11397;48.410;11.468;2022-10-17T20:48:25;6.13;;;5.93;;
22460;SDS011;11397;48.410;11.468;2022-10-17T20:53:28;6.40;;;6.20;;
22460;SDS011;11397;48.410;11.468;2022-10-17T20:58:30;6.57;;;6.38;;
22460;SDS011;11397;48.410;11.468;2022-10-17T21:03:57;6.40;;;6.20;;
22460;SDS011;11397;48.410;11.468;2022-10-17T21:08:59;5.90;;;5.70;;
22460;SDS011;11397;48.410;11.468;2022-10-17T21:14:02;6.13;;;5.93;;
22460;SDS011;11397;48.410;11.468;2022-10-17T21:19:04;5.93;;;5.72;;
22460;SDS011;11397;48.410;11.468;2022-10-17T21:24:15;5.97;;;5.78;;
22460;SDS011;11397;48.410;11.468;2022-10-17T21:29:20;6.45;;;6.25;;
22460;SDS011;11397;48.410;11.468;2022-10-17T21:34:21;6.40;;;6.20;;
22460;SDS011;11397;48.410;11.468;2022-10-17T21:39:25;6.93;;;6.72;;
22460;SDS011;11397;48.410;11.468;2022-10-17T21:44:27;6.80;;;6.60;;
22460;SDS011;11397;48.410;11.468;2022-10-17T21:49:28;6.35;;;6.15;;
22460;SDS011;11397;48.410;11.468;2022-10-17T21:54:31;6.28;;;6.07;;
22460;SDS011;11397;48.410;11.468;2022-10-17T21:59:33;6.07;;;5.88;;
22460;SDS011;11397;48.410;11.468;2022-10-17T22:04:34;6.57;;;6.38;;
22460;SDS011;11397;48.410;11.468;2022-10-17T22:09:37;6.25;;;6.05;;
22460;SDS011;11397;48.410;11.468;2022-10-17T22:14:39;7.40;;;7.10;;
22460;SDS011;11397;48.410;11.468;2022-10-17T22:19:40;6.65;;;6.45;;
22460;SDS011;11397;48.410;11.468;2022-10-17T22:24:43;6.22;;;6.03;;
22460;SDS011;11397;48.410;11.468;2022-10-17T22:29:45;7.20;;;7.00;;
22460;SDS011;11397;48.410;11.468;2022-10-17T22:34:46;7.30;;;7.05;;
22460;SDS011;11397;48.410;11.468;2022-10-17T22:39:49;6.85;;;6.65;;
22460;SDS011;11397;48.410;11.468;2022-10-17T22:44:51;7.80;;;7.50;;
22460;SDS011;11397;48.410;11.468;2022-10-17T22:49:52;7.03;;;6.82;;
22460;SDS011;11397;48.410;11.468;2022-10-17T22:54:55;7.13;;;6.93;;
22460;SDS011;11397;48.410;11.468;2022-10-17T22:59:57;7.53;;;7.22;;
22460;SDS011;11397;48.410;11.468;2022-10-17T23:11:02;6.88;;;6.68;;
22460;SDS011;11397;48.410;11.468;2022-10-17T23:16:04;7.40;;;7.10;;
22460;SDS011;11397;48.410;11.468;2022-10-17T23:21:06;7.57;;;7.28;;
22460;SDS011;11397;48.410;11.468;2022-10-17T23:26:10;7.57;;;7.28;;
22460;SDS011;11397;48.410;11.468;2022-10-17T23:31:12;7.45;;;7.15;;
22460;SDS011;11397;48.410;11.468;2022-10-17T23:36:18;7.10;;;6.90;;
22460;SDS011;11397;48.410;11.468;2022-10-17T23:41:21;7.65;;;7.35;;
22460;SDS011;11397;48.410;11.468;2022-10-17T23:46:22;7.10;;;6.90;;
22460;SDS011;11397;48.410;11.468;2022-10-17T23:51:24;7.40;;;7.10;;
22460;SDS011;11397;48.410;11.468;2022-10-17T23:56:27;7.07;;;6.88;;
